Latest Coastal Weather Observations for Smithton

IDT60701

Issued at 1:52 pm EDT Thursday 24 October 2019 (issued every 10 minutes, with the page automatically refreshed every 10 minutes)

About coastal observations | Map of coastal stations | Coastal observations for TAS | Marine services | Other Formats
Station Details ID: 091292 Name: SMITHTON AERODROME Lat: -40.83 Lon: 145.08 Height: 7.5 m
Data from the previous 72 hours. | See also: Recent months at Smithton
Date/Time
EDT
Wind Sea
Height
m
Swell Vis
km
Cloud Weather Temp
°C
Press
hPa
Rain since
9am
mm
Dir  Spd
kts
Gust
kts
Height
m
Period
s
Dir
24/01:30pm ENE 17 22 - - - - - - - 20.1 1012.2 0.0
24/01:00pm ENE 19 24 - - - - - - - 19.0 1012.6 0.0
24/12:30pm ENE 17 22 - - - - - - - 19.6 1013.1 0.0
24/12:00pm ENE 16 20 - - - - - - - 19.3 1013.6 0.0
24/11:30am ENE 17 22 - - - - - - - 19.0 1013.8 0.0
24/11:00am ENE 16 22 - - - - - - - 18.4 1014.0 0.0
24/10:30am ENE 15 19 - - - - - - - 18.3 1014.0 0.0
24/10:00am ENE 15 19 - - - - - - - 18.3 1014.0 0.0
24/09:30am ENE 13 16 - - - - - - - 17.2 1014.4 0.0
24/09:00am ENE 12 16 - - - - - - - 16.2 1014.5 0.0
24/08:30am ENE 12 17 - - - - - - - 14.7 1014.9 0.0
24/08:00am ENE 13 17 - - - - - - - 13.6 1015.2 0.0
24/07:30am ENE 13 17 - - - - - - - 12.6 1015.3 0.0
24/07:00am ENE 11 16 - - - - - - - 11.5 1015.2 0.0
24/06:30am E 13 16 - - - - - - - 11.2 1015.1 0.0
24/06:00am ENE 11 16 - - - - - - - 10.9 1015.1 0.0
24/05:30am ENE 9 14 - - - - - - - 10.5 1015.0 0.0
24/05:00am NE 7 8 - - - - - - - 8.9 1014.9 0.0
24/04:30am NE 6 7 - - - - - - - 9.2 1015.0 0.0
24/04:00am NE 6 8 - - - - - - - 9.7 1015.2 0.0
24/03:30am NE 9 11 - - - - - - - 11.2 1015.2 0.0
24/03:00am ENE 6 11 - - - - - - - 7.5 1015.7 0.0
24/02:30am SSW 1 3 - - - - - - - 6.1 1015.9 0.0
24/02:00am SSW 2 4 - - - - - - - 6.0 1016.0 0.0
24/01:30am CALM 0 0 - - - - - - - 6.1 1016.2 0.0
24/01:00am SSE 4 4 - - - - - - - 6.2 1016.5 0.0
24/12:30am SSW 3 6 - - - - - - - 6.8 1016.8 0.0
24/12:00am S 4 5 - - - - - - - 7.4 1016.9 0.0
 
Date/Time
EDT
Wind Sea
Height
m
Swell Vis
km
Cloud Weather Temp
°C
Press
hPa
Rain since
9am
mm
Dir  Spd
kts
Gust
kts
Height
m
Period
s
Dir
23/11:30pm CALM 0 0 - - - - - - - 8.3 1016.9 0.0
23/11:00pm CALM 0 0 - - - - - - - 9.2 1017.0 0.0
23/10:30pm CALM 0 0 - - - - - - - 8.8 1017.2 0.0
23/10:00pm CALM 0 0 - - - - - - - 9.2 1017.4 0.0
23/09:30pm CALM 0 0 - - - - - - - 9.9 1018.0 0.0
23/09:00pm SW 4 5 - - - - - - - 10.9 1018.0 0.0
23/08:30pm WSW 5 5 - - - - - - - 12.0 1018.1 0.0
23/08:00pm SSW 5 6 - - - - - - - 14.4 1017.9 0.0
23/07:30pm SW 3 5 - - - - - - - 15.2 1017.9 0.0
23/07:00pm WSW 9 11 - - - - - - - 16.1 1017.7 0.0
23/06:30pm W 8 9 - - - - - - - 17.3 1017.5 0.0
23/06:00pm W 6 7 - - - - - - - 18.0 1017.1 0.0
23/05:30pm W 10 12 - - - - - - - 19.3 1017.3 0.0
23/05:00pm W 10 13 - - - - - - - 21.5 1017.4 0.0
23/04:30pm WNW 9 13 - - - - - - - 21.7 1017.4 0.0
23/04:00pm W 8 10 - - - - - - - 22.2 1017.6 0.0
23/03:30pm W 8 10 - - - - - - - 20.8 1018.0 0.0
23/03:00pm NW 10 13 - - - - - - - 20.9 1018.3 0.0
23/02:30pm WNW 10 13 - - - - - - - 19.6 1018.6 0.0
23/02:00pm NE 9 12 - - - - - - - 19.3 1018.8 0.0
23/01:30pm NE 9 11 - - - - - - - 18.9 1019.2 0.0
23/01:00pm NE 8 9 - - - - - - - 17.5 1019.6 0.0
23/12:30pm NNE 9 11 - - - - - - - 15.6 1019.9 0.0
23/12:00pm N 7 9 - - - - - - - 16.8 1020.2 0.0
23/11:30am NNW 2 6 - - - - - - - 15.3 1020.5 0.0
23/11:00am S 3 5 - - - - - - - 13.7 1021.0 0.0
23/10:30am WSW 3 4 - - - - - - - 13.2 1021.1 0.0
23/10:00am SW 4 7 - - - - - - - 11.7 1021.2 0.0
23/09:30am WNW 3 5 - - - - - - - 10.5 1021.4 0.0
23/09:00am NNW 4 7 - - - - - - - 10.1 1021.3 0.0
23/08:30am W 4 7 - - - - - - - 9.6 1021.2 0.0
23/08:00am NNE 2 5 - - - - - - - 9.3 1020.8 0.0
23/07:30am NW 4 7 - - - - - - - 8.8 1020.5 0.0
23/07:00am WNW 4 7 - - - - - - - 8.2 1020.6 0.0
23/06:30am W 4 7 - - - - - - - 7.9 1020.4 0.0
23/06:00am SW 3 6 - - - - - - - 7.8 1020.6 0.0
23/05:30am WNW 4 7 - - - - - - - 7.9 1020.3 0.0
23/05:00am WNW 5 7 - - - - - - - 7.8 1020.6 0.0
23/04:30am SW 5 6 - - - - - - - 8.1 1020.7 0.0
23/04:00am WSW 5 7 - - - - - - - 8.2 1020.7 0.0
23/03:30am WSW 6 8 - - - - - - - 8.3 1021.0 0.0
23/03:00am WSW 6 8 - - - - - - - 8.3 1021.1 0.0
23/02:30am SW 6 9 - - - - - - - 8.0 1021.6 0.0
23/02:00am WSW 6 7 - - - - - - - 5.9 1022.1 0.0
23/01:30am WSW 6 6 - - - - - - - 4.6 1022.4 0.0
23/01:00am W 4 5 - - - - - - - 5.3 1022.4 0.0
23/12:30am SW 5 6 - - - - - - - 6.2 1022.8 0.0
23/12:00am W 3 5 - - - - - - - 6.2 1022.6 0.0
 
Date/Time
EDT
Wind Sea
Height
m
Swell Vis
km
Cloud Weather Temp
°C
Press
hPa
Rain since
9am
mm
Dir  Spd
kts
Gust
kts
Height
m
Period
s
Dir
22/11:30pm WSW 7 7 - - - - - - - 6.5 1023.0 0.0
22/11:00pm WSW 3 4 - - - - - - - 6.8 1023.0 0.0
22/10:30pm W 5 5 - - - - - - - 6.7 1023.1 0.0
22/10:00pm WSW 5 6 - - - - - - - 7.6 1023.1 0.0
22/09:30pm SW 5 6 - - - - - - - 7.7 1023.2 0.0
22/09:00pm SW 5 6 - - - - - - - 8.3 1023.3 0.0
22/08:30pm W 4 5 - - - - - - - 9.0 1022.9 0.0
22/08:00pm WSW 5 7 - - - - - - - 10.3 1022.8 0.0
22/07:30pm W 8 9 - - - - - - - 11.5 1022.9 0.0
22/07:00pm WNW 9 11 - - - - - - - 13.4 1022.6 0.0
22/06:30pm WNW 10 13 - - - - - - - 15.3 1022.5 0.0
22/06:00pm NW 10 14 - - - - - - - 15.9 1022.5 0.0
22/05:30pm NW 10 13 - - - - - - - 16.7 1022.3 0.0
22/05:00pm NE 8 11 - - - - - - - 17.4 1022.3 0.0
22/04:30pm NNE 9 11 - - - - - - - 16.5 1022.5 0.0
22/04:00pm NE 10 12 - - - - - - - 16.3 1022.7 0.0
22/03:30pm NE 10 12 - - - - - - - 16.7 1023.3 0.0
22/03:00pm NE 10 12 - - - - - - - 17.1 1023.6 0.0
22/02:30pm NE 11 14 - - - - - - - 17.1 1023.8 0.0
22/02:00pm N 9 13 - - - - - - - 18.2 1023.9 0.0
22/01:30pm NW 9 14 - - - - - - - 18.8 1023.9 0.0
22/01:00pm WNW 6 9 - - - - - - - 18.9 1024.5 0.0
22/12:30pm WNW 4 6 - - - - - - - 17.3 1024.7 0.0
22/12:00pm WNW 6 8 - - - - - - - 17.1 1024.9 0.0
22/11:30am WSW 4 7 - - - - - - - 15.9 1025.0 0.0
22/11:00am WSW 5 9 - - - - - - - 14.9 1025.3 0.0
22/10:30am SW 8 13 - - - - - - - 14.0 1025.3 0.0
22/10:00am SSW 9 12 - - - - - - - 13.4 1025.4 0.0
22/09:30am SW 9 11 - - - - - - - 12.6 1025.3 0.0
22/09:00am SW 11 13 - - - - - - - 11.8 1025.3 0.2
22/08:30am SW 12 16 - - - - - - - 10.9 1025.3 0.2
22/08:00am SW 12 17 - - - - - - - 10.2 1025.2 0.2
22/07:30am SW 10 13 - - - - - - - 9.3 1025.1 0.2
22/07:00am SW 9 11 - - - - - - - 8.3 1024.8 0.2
22/06:30am WSW 8 8 - - - - - - - 7.0 1024.7 0.2
22/06:00am WSW 8 10 - - - - - - - 7.5 1024.5 0.2
22/05:30am SW 9 10 - - - - - - - 8.6 1024.3 0.2
22/05:00am SW 13 17 - - - - - - - 9.4 1024.2 0.2
22/04:30am SW 12 16 - - - - - - - 9.5 1024.4 0.2
22/04:00am SW 12 17 - - - - - - - 9.4 1024.5 0.2
22/03:30am SSW 10 14 - - - - - - - 9.5 1024.5 0.2
22/03:00am SW 11 17 - - - - - - - 9.4 1024.5 0.2
22/02:30am SW 10 12 - - - - - - - 9.3 1024.6 0.2
22/02:00am SW 11 15 - - - - - - - 9.5 1024.8 0.2
22/01:30am SW 10 13 - - - - - - - 9.4 1025.2 0.2
22/01:00am SW 12 17 - - - - - - - 9.7 1025.3 0.2
22/12:30am SW 11 14 - - - - - - - 9.5 1025.5 0.2
22/12:00am SW 10 13 - - - - - - - 9.2 1025.6 0.2
 
Date/Time
EDT
Wind Sea
Height
m
Swell Vis
km
Cloud Weather Temp
°C
Press
hPa
Rain since
9am
mm
Dir  Spd
kts
Gust
kts
Height
m
Period
s
Dir
21/11:30pm SW 10 12 - - - - - - - 8.4 1025.6 0.2
21/11:00pm SW 11 15 - - - - - - - 9.2 1025.7 0.2
21/10:30pm SW 11 15 - - - - - - - 9.8 1025.9 0.2
21/10:00pm SW 12 17 - - - - - - - 10.0 1025.8 0.2
21/09:30pm SW 15 20 - - - - - - - 10.0 1025.8 0.2
21/09:00pm SW 10 14 - - - - - - - 10.3 1025.7 0.2
21/08:30pm SW 13 18 - - - - - - - 10.7 1025.4 0.2
21/08:00pm SW 14 18 - - - - - - - 10.9 1025.5 0.2
21/07:30pm SW 17 24 - - - - - - - 11.2 1025.2 0.2
21/07:00pm SW 17 22 - - - - - - - 11.8 1025.3 0.2
21/06:30pm SW 16 22 - - - - - - - 12.9 1025.0 0.2
21/06:00pm SW 17 22 - - - - - - - 13.0 1024.8 0.2
21/05:30pm SW 17 24 - - - - - - - 13.8 1024.6 0.2
21/05:00pm WSW 17 22 - - - - - - - 15.0 1024.5 0.2
21/04:30pm WSW 15 20 - - - - - - - 15.5 1024.6 0.2
21/04:00pm WSW 16 21 - - - - - - - 15.9 1024.7 0.2
21/03:30pm WSW 16 21 - - - - - - - 16.2 1024.9 0.2
21/03:00pm SW 15 21 - - - - - - - 16.9 1025.0 0.2
21/02:30pm WSW 16 21 - - - - - - - 16.7 1025.3 0.2
21/02:00pm WSW 15 20 - - - - - - - 16.7 1025.3 0.2

Other formats

Comma delimited format used in spreadsheet applications
http://www.bom.gov.au/fwo/IDT60701/IDT60701.94953.axf

JavaScript Object Notation format (JSON) in row-major order
http://www.bom.gov.au/fwo/IDT60701/IDT60701.94953.json

Data quality

Most of these data are generated automatically and are frequently updated. Quality checks on data are not normally performed. It is possible for incorrect values to appear. Refer to information at About Latest Weather Observations and please check the disclaimer before using these data.